createdAt,value
2022-10-01T00:01:08.262Z,10.83
2022-10-01T00:03:36.395Z,8.57
2022-10-01T00:06:12.251Z,7.78
2022-10-01T00:08:40.786Z,7.25
2022-10-01T00:11:13.376Z,11.48
2022-10-01T00:13:40.988Z,14.07
2022-10-01T00:16:10.124Z,11.30
2022-10-01T00:18:38.962Z,14.10
2022-10-01T00:21:10.458Z,17.00
2022-10-01T00:23:38.474Z,8.10
2022-10-01T00:26:15.444Z,14.77
2022-10-01T00:28:44.021Z,12.63
2022-10-01T00:31:11.389Z,11.38
2022-10-01T00:33:38.744Z,13.32
2022-10-01T00:36:07.281Z,12.98
2022-10-01T00:38:34.505Z,9.13
2022-10-01T00:41:01.902Z,11.40
2022-10-01T00:43:32.199Z,11.82
2022-10-01T00:46:02.699Z,10.73
2022-10-01T00:48:34.689Z,11.00
2022-10-01T00:51:01.980Z,11.57
2022-10-01T00:53:29.292Z,8.70
2022-10-01T00:55:58.188Z,12.45
2022-10-01T00:58:26.046Z,9.75
2022-10-01T01:00:57.074Z,8.10
2022-10-01T01:03:24.698Z,10.97
2022-10-01T01:05:51.510Z,9.18
2022-10-01T01:08:18.967Z,8.98
2022-10-01T01:11:04.395Z,10.35
2022-10-01T01:13:51.016Z,8.82
2022-10-01T01:16:20.070Z,11.13
2022-10-01T01:19:02.098Z,15.73
2022-10-01T01:21:29.253Z,10.10
2022-10-01T01:24:25.132Z,10.25
2022-10-01T01:27:01.148Z,8.90
2022-10-01T01:30:14.999Z,8.37
2022-10-01T01:32:50.141Z,6.93
2022-10-01T01:35:31.532Z,6.30
2022-10-01T01:38:06.138Z,8.15
2022-10-01T01:40:36.936Z,8.45
2022-10-01T01:43:08.150Z,8.13
2022-10-01T01:45:40.034Z,9.68
2022-10-01T01:48:09.966Z,6.63
2022-10-01T01:51:04.270Z,7.07
2022-10-01T01:53:32.143Z,7.13
2022-10-01T01:56:00.316Z,7.07
2022-10-01T01:58:32.512Z,5.63
2022-10-01T02:00:59.743Z,8.70
2022-10-01T02:03:29.213Z,6.65
2022-10-01T02:06:43.929Z,9.32
2022-10-01T02:09:41.783Z,6.50
2022-10-01T02:12:22.099Z,7.43
2022-10-01T02:15:40.324Z,6.43
2022-10-01T02:18:22.533Z,7.57
2022-10-01T02:21:12.315Z,6.13
2022-10-01T02:23:59.835Z,5.50
2022-10-01T02:26:29.824Z,8.00
2022-10-01T02:29:01.933Z,6.63
2022-10-01T02:31:30.545Z,5.60
2022-10-01T02:34:00.047Z,6.85
2022-10-01T02:36:28.473Z,6.03
2022-10-01T02:38:58.050Z,4.97
2022-10-01T02:41:29.140Z,6.32
2022-10-01T02:44:03.567Z,6.40
2022-10-01T02:46:52.963Z,5.30
2022-10-01T02:49:20.537Z,5.80
2022-10-01T02:52:22.515Z,3.92
2022-10-01T02:54:55.477Z,5.70
2022-10-01T02:57:29.738Z,5.85
2022-10-01T03:00:03.020Z,4.50
2022-10-01T03:02:32.385Z,5.93
2022-10-01T03:04:59.838Z,4.80
2022-10-01T03:07:29.980Z,6.13
2022-10-01T03:09:57.528Z,5.10
2022-10-01T03:12:24.523Z,5.53
2022-10-01T03:14:51.598Z,6.17
2022-10-01T03:17:18.859Z,6.50
2022-10-01T03:19:46.166Z,6.22
2022-10-01T03:22:22.620Z,6.45
2022-10-01T03:24:53.454Z,7.90
2022-10-01T03:27:21.400Z,8.33
2022-10-01T03:29:48.614Z,4.55
2022-10-01T03:32:16.753Z,7.63
2022-10-01T03:34:44.239Z,7.07
2022-10-01T03:37:11.573Z,8.48
2022-10-01T03:39:38.793Z,4.47
2022-10-01T03:42:07.048Z,5.20
2022-10-01T03:44:34.571Z,5.90
2022-10-01T03:47:01.763Z,6.50
2022-10-01T03:49:28.964Z,7.57
2022-10-01T03:51:56.501Z,7.20
2022-10-01T03:54:23.777Z,7.53
2022-10-01T03:56:50.960Z,8.07
2022-10-01T03:59:18.190Z,6.45
2022-10-01T04:01:45.079Z,7.78
2022-10-01T04:04:12.475Z,7.53
2022-10-01T04:06:39.716Z,7.25
2022-10-01T04:09:09.634Z,9.40
2022-10-01T04:11:37.743Z,6.93
2022-10-01T04:14:05.173Z,8.75
2022-10-01T04:16:34.861Z,6.70
2022-10-01T04:19:03.745Z,6.70
2022-10-01T04:21:31.072Z,7.82
2022-10-01T04:23:59.621Z,7.32
2022-10-01T04:26:27.032Z,10.02
2022-10-01T04:28:54.202Z,8.93
2022-10-01T04:31:24.643Z,8.07
2022-10-01T04:33:56.731Z,11.30
2022-10-01T04:36:25.216Z,8.25
2022-10-01T04:38:56.644Z,8.75
2022-10-01T04:41:26.879Z,9.73
2022-10-01T04:43:54.083Z,8.63
2022-10-01T04:46:21.330Z,10.27
2022-10-01T04:48:49.632Z,10.13
2022-10-01T04:51:17.379Z,11.45
2022-10-01T04:53:44.774Z,9.17
2022-10-01T04:56:12.017Z,9.48
2022-10-01T04:58:39.308Z,9.93
2022-10-01T05:01:06.811Z,10.20
2022-10-01T05:03:34.397Z,9.73
2022-10-01T05:06:01.430Z,11.07
2022-10-01T05:08:28.684Z,10.35
2022-10-01T05:10:55.906Z,12.10
2022-10-01T05:13:23.268Z,10.93
2022-10-01T05:15:52.184Z,12.57
2022-10-01T05:18:19.657Z,11.17
2022-10-01T05:20:47.024Z,11.80
2022-10-01T05:23:14.264Z,14.00
2022-10-01T05:25:41.510Z,13.80
2022-10-01T05:28:08.757Z,13.57
2022-10-01T05:30:35.729Z,9.93
2022-10-01T05:33:04.735Z,13.15
2022-10-01T05:35:32.056Z,12.23
2022-10-01T05:38:01.102Z,14.32
2022-10-01T05:40:28.786Z,13.07
2022-10-01T05:42:59.822Z,13.33
2022-10-01T05:45:30.933Z,13.65
2022-10-01T05:48:03.260Z,14.55
2022-10-01T05:50:32.055Z,14.00
2022-10-01T05:52:59.712Z,11.95
2022-10-01T05:55:31.956Z,15.27
2022-10-01T05:58:04.495Z,18.48
2022-10-01T06:00:32.896Z,12.55
2022-10-01T06:03:01.192Z,14.38
2022-10-01T06:05:29.586Z,14.57
2022-10-01T06:07:56.808Z,19.20
2022-10-01T06:10:24.579Z,11.10
2022-10-01T06:12:52.065Z,23.90
2022-10-01T06:15:19.464Z,19.55
2022-10-01T06:17:46.894Z,17.42
2022-10-01T06:20:18.998Z,18.80
2022-10-01T06:22:54.305Z,14.90
2022-10-01T06:25:21.598Z,18.73
2022-10-01T06:27:53.837Z,17.85
2022-10-01T06:30:21.036Z,13.60
2022-10-01T06:32:47.924Z,18.77
2022-10-01T06:35:14.735Z,14.63
2022-10-01T06:37:41.991Z,19.48
2022-10-01T06:40:09.302Z,15.82
2022-10-01T06:42:36.312Z,14.48
2022-10-01T06:45:03.506Z,14.03
2022-10-01T06:47:30.798Z,14.23
2022-10-01T06:49:59.341Z,16.70
2022-10-01T06:52:45.127Z,15.15
2022-10-01T06:55:16.473Z,13.38
2022-10-01T06:57:43.863Z,13.17
2022-10-01T07:00:11.920Z,12.90
2022-10-01T07:02:39.543Z,13.15
2022-10-01T07:05:08.230Z,15.77
2022-10-01T07:07:38.724Z,14.23
2022-10-01T07:10:08.013Z,12.50
2022-10-01T07:12:36.202Z,15.73
2022-10-01T07:15:03.469Z,13.02
2022-10-01T07:17:31.088Z,12.80
2022-10-01T07:19:58.222Z,13.23
2022-10-01T07:22:25.215Z,15.27
2022-10-01T07:24:52.728Z,10.68
2022-10-01T07:27:19.770Z,11.45
2022-10-01T07:29:46.997Z,13.68
2022-10-01T07:32:15.731Z,11.20
2022-10-01T07:34:42.573Z,12.60
2022-10-01T07:37:10.456Z,14.52
2022-10-01T07:39:37.946Z,13.43
2022-10-01T07:42:05.894Z,12.98
2022-10-01T07:44:33.224Z,13.23
2022-10-01T07:47:00.837Z,12.43
2022-10-01T07:49:27.819Z,11.85
2022-10-01T07:51:54.987Z,13.52
2022-10-01T07:54:22.234Z,13.00
2022-10-01T07:56:52.779Z,12.93
2022-10-01T07:59:20.165Z,11.93
2022-10-01T08:01:54.158Z,14.25
2022-10-01T08:04:40.057Z,11.18
2022-10-01T08:07:08.394Z,10.88
2022-10-01T08:09:35.576Z,13.40
2022-10-01T08:12:03.119Z,10.27
2022-10-01T08:14:30.587Z,11.40
2022-10-01T08:16:58.166Z,12.45
2022-10-01T08:19:25.736Z,14.80
2022-10-01T08:21:52.855Z,18.10
2022-10-01T08:24:20.120Z,8.93
2022-10-01T08:26:53.245Z,10.77
2022-10-01T08:29:20.536Z,13.43
2022-10-01T08:31:47.729Z,9.20
2022-10-01T08:34:15.068Z,7.70
2022-10-01T08:36:41.988Z,8.57
2022-10-01T08:39:09.056Z,7.55
2022-10-01T08:41:46.702Z,8.68
2022-10-01T08:44:27.908Z,12.13
2022-10-01T08:47:01.858Z,7.03
2022-10-01T08:49:37.627Z,9.37
2022-10-01T08:52:13.298Z,11.13
2022-10-01T08:54:46.422Z,11.90
2022-10-01T08:57:18.141Z,10.18
2022-10-01T08:59:49.262Z,12.00
2022-10-01T09:02:22.321Z,12.57
2022-10-01T09:04:55.076Z,10.80
2022-10-01T09:07:32.733Z,15.25
2022-10-01T09:10:10.143Z,12.60
2022-10-01T09:12:40.158Z,13.57
2022-10-01T09:15:41.397Z,11.10
2022-10-01T09:18:18.347Z,14.20
2022-10-01T09:20:53.466Z,12.85
2022-10-01T09:23:30.773Z,13.63
2022-10-01T09:25:59.585Z,10.75
2022-10-01T09:28:35.024Z,17.10
2022-10-01T09:31:18.655Z,17.52
2022-10-01T09:34:03.192Z,9.05
2022-10-01T09:36:42.647Z,11.45
2022-10-01T09:39:26.972Z,10.88
2022-10-01T09:41:54.072Z,11.10
2022-10-01T09:44:29.888Z,11.82
2022-10-01T09:46:56.693Z,11.98
2022-10-01T09:49:39.652Z,16.75
2022-10-01T09:52:15.090Z,16.52
2022-10-01T09:54:48.790Z,10.27
2022-10-01T09:57:25.770Z,17.33
2022-10-01T10:00:10.714Z,12.88
2022-10-01T10:02:44.615Z,12.45
2022-10-01T10:05:24.954Z,10.90
2022-10-01T10:08:03.129Z,9.40
2022-10-01T10:10:36.963Z,9.18
2022-10-01T10:13:10.834Z,12.43
2022-10-01T10:15:57.589Z,12.30
2022-10-01T10:18:38.351Z,14.43
2022-10-01T10:21:16.659Z,8.17
2022-10-01T10:23:58.982Z,14.23
2022-10-01T10:26:32.982Z,13.00
2022-10-01T10:29:02.524Z,10.93
2022-10-01T10:31:47.003Z,10.35
2022-10-01T10:34:21.483Z,9.17
2022-10-01T10:36:49.198Z,10.93
2022-10-01T10:39:21.714Z,7.05
2022-10-01T10:41:49.932Z,9.57
2022-10-01T10:44:21.349Z,12.75
2022-10-01T10:46:50.389Z,10.30
2022-10-01T10:49:18.419Z,11.88
2022-10-01T10:51:49.296Z,12.35
2022-10-01T10:54:21.506Z,10.32
2022-10-01T10:56:53.642Z,13.35
2022-10-01T10:59:20.470Z,8.40
2022-10-01T11:01:48.431Z,6.88
2022-10-01T11:04:26.394Z,6.70
2022-10-01T11:06:58.939Z,9.68
2022-10-01T11:09:33.441Z,8.43
2022-10-01T11:12:19.538Z,8.10
2022-10-01T11:14:59.781Z,9.82
2022-10-01T11:18:13.461Z,7.00
2022-10-01T11:20:53.845Z,10.38
2022-10-01T11:23:56.477Z,10.50
2022-10-01T11:26:53.491Z,10.20
2022-10-01T11:29:20.945Z,10.13
2022-10-01T11:31:58.938Z,7.43
2022-10-01T11:34:50.386Z,10.52
2022-10-01T11:37:20.190Z,11.82
2022-10-01T11:39:51.832Z,7.17
2022-10-01T11:42:24.648Z,10.02
2022-10-01T11:45:00.806Z,11.20
2022-10-01T11:47:43.715Z,7.80
2022-10-01T11:50:28.502Z,8.43
2022-10-01T11:53:03.015Z,9.20
2022-10-01T11:56:20.390Z,12.13
2022-10-01T11:59:12.158Z,15.20
2022-10-01T12:01:46.697Z,15.75
2022-10-01T12:04:35.785Z,15.57
2022-10-01T12:07:26.815Z,8.23
2022-10-01T12:10:17.064Z,9.07
2022-10-01T12:12:56.920Z,11.30
2022-10-01T12:15:32.732Z,13.60
2022-10-01T12:18:25.163Z,15.25
2022-10-01T12:20:55.698Z,10.10
2022-10-01T12:23:40.068Z,9.07
2022-10-01T12:26:20.487Z,9.27
2022-10-01T12:29:00.156Z,15.43
2022-10-01T12:31:43.395Z,11.65
2022-10-01T12:34:22.528Z,10.33
2022-10-01T12:36:58.182Z,9.45
2022-10-01T12:39:41.090Z,9.88
2022-10-01T12:42:42.859Z,11.52
2022-10-01T12:45:44.496Z,9.05
2022-10-01T12:48:26.582Z,11.10
2022-10-01T12:51:35.599Z,11.23
2022-10-01T12:54:17.684Z,9.15
2022-10-01T12:57:04.570Z,8.05
2022-10-01T13:00:09.440Z,9.23
2022-10-01T13:03:07.039Z,12.57
2022-10-01T13:05:59.900Z,10.57
2022-10-01T13:09:12.950Z,9.48
2022-10-01T13:11:51.382Z,14.48
2022-10-01T13:14:19.921Z,9.27
2022-10-01T13:17:00.162Z,14.63
2022-10-01T13:19:40.672Z,8.23
2022-10-01T13:22:25.757Z,9.88
2022-10-01T13:25:00.938Z,10.73
2022-10-01T13:27:35.891Z,10.93
2022-10-01T13:30:16.217Z,10.82
2022-10-01T13:33:05.040Z,13.38
2022-10-01T13:35:41.219Z,14.45
2022-10-01T13:38:47.539Z,11.77
2022-10-01T13:41:25.273Z,10.90
2022-10-01T13:43:59.728Z,10.43
2022-10-01T13:46:31.273Z,13.05
2022-10-01T13:49:16.979Z,9.77
2022-10-01T13:51:46.118Z,9.93
2022-10-01T13:54:36.536Z,10.43
2022-10-01T13:57:11.225Z,9.57
2022-10-01T13:59:38.824Z,7.75
2022-10-01T14:02:34.005Z,9.82
2022-10-01T14:05:28.934Z,6.95
2022-10-01T14:08:19.209Z,10.40
2022-10-01T14:11:10.724Z,12.00
2022-10-01T14:14:04.538Z,15.45
2022-10-01T14:16:45.999Z,7.25
2022-10-01T14:19:21.354Z,9.55
2022-10-01T14:22:13.304Z,9.67
2022-10-01T14:24:40.154Z,8.52
2022-10-01T14:27:37.397Z,8.02
2022-10-01T14:30:15.747Z,8.10
2022-10-01T14:32:51.011Z,7.38
2022-10-01T14:35:46.535Z,7.17
2022-10-01T14:38:18.617Z,8.30
2022-10-01T14:40:47.877Z,12.75
2022-10-01T14:43:23.395Z,9.80
2022-10-01T14:46:04.796Z,12.43
2022-10-01T14:48:34.328Z,11.20
2022-10-01T14:51:06.822Z,10.60
2022-10-01T14:53:36.849Z,12.60
2022-10-01T14:56:12.506Z,11.95
2022-10-01T14:58:47.274Z,11.45
2022-10-01T15:01:22.629Z,8.93
2022-10-01T15:03:50.889Z,11.00
2022-10-01T15:06:23.788Z,10.35
2022-10-01T15:08:53.387Z,12.27
2022-10-01T15:11:23.985Z,10.00
2022-10-01T15:13:53.459Z,10.67
2022-10-01T15:16:27.336Z,8.70
2022-10-01T15:19:01.005Z,9.70
2022-10-01T15:21:43.888Z,10.90
2022-10-01T15:24:28.110Z,10.18
2022-10-01T15:26:57.530Z,11.53
2022-10-01T15:29:24.868Z,9.85
2022-10-01T15:31:53.269Z,6.95
2022-10-01T15:34:22.532Z,6.95
2022-10-01T15:36:50.449Z,6.18
2022-10-01T15:39:25.995Z,8.17
2022-10-01T15:41:54.545Z,6.97
2022-10-01T15:44:46.273Z,9.75
2022-10-01T15:47:16.049Z,10.07
2022-10-01T15:50:06.572Z,10.90
2022-10-01T15:52:57.781Z,8.97
2022-10-01T15:55:35.477Z,9.25
2022-10-01T15:58:11.321Z,10.40
2022-10-01T16:01:01.068Z,14.90
2022-10-01T16:04:07.729Z,6.53
2022-10-01T16:06:46.323Z,12.17
2022-10-01T16:09:27.707Z,11.18
2022-10-01T16:12:09.271Z,7.25
2022-10-01T16:14:42.719Z,8.63
2022-10-01T16:17:18.478Z,10.35
2022-10-01T16:19:51.257Z,9.67
2022-10-01T16:22:19.170Z,10.23
2022-10-01T16:24:57.885Z,13.23
2022-10-01T16:27:25.017Z,10.80
2022-10-01T16:29:52.243Z,9.18
2022-10-01T16:32:19.024Z,8.47
2022-10-01T16:34:46.240Z,8.68
2022-10-01T16:37:13.032Z,9.25
2022-10-01T16:39:40.247Z,15.55
2022-10-01T16:42:23.249Z,11.27
2022-10-01T16:44:51.764Z,12.53
2022-10-01T16:47:18.976Z,16.83
2022-10-01T16:49:47.992Z,15.20
2022-10-01T16:52:16.490Z,16.02
2022-10-01T16:54:44.442Z,17.05
2022-10-01T16:57:11.866Z,10.87
2022-10-01T16:59:39.318Z,13.02
2022-10-01T17:02:13.848Z,15.30
2022-10-01T17:04:41.213Z,11.85
2022-10-01T17:07:08.501Z,13.88
2022-10-01T17:09:35.241Z,11.77
2022-10-01T17:12:02.503Z,15.27
2022-10-01T17:14:29.310Z,12.60
2022-10-01T17:16:56.654Z,12.10
2022-10-01T17:19:24.884Z,11.13
2022-10-01T17:21:53.155Z,7.87
2022-10-01T17:24:20.317Z,10.80
2022-10-01T17:26:48.097Z,9.68
2022-10-01T17:29:14.869Z,17.50
2022-10-01T17:31:44.779Z,15.57
2022-10-01T17:34:13.185Z,12.67
2022-10-01T17:36:40.461Z,13.07
2022-10-01T17:39:07.700Z,14.65
2022-10-01T17:41:34.617Z,12.88
2022-10-01T17:44:01.627Z,20.77
2022-10-01T17:46:30.869Z,13.17
2022-10-01T17:48:58.134Z,13.55
2022-10-01T17:51:25.929Z,14.48
2022-10-01T17:53:54.960Z,10.57
2022-10-01T17:56:22.639Z,16.13
2022-10-01T17:58:49.892Z,13.17
2022-10-01T18:01:19.873Z,14.27
2022-10-01T18:03:47.039Z,15.82
2022-10-01T18:06:15.245Z,8.65
2022-10-01T18:08:55.204Z,15.18
2022-10-01T18:11:25.011Z,10.27
2022-10-01T18:13:52.991Z,14.80
2022-10-01T18:16:20.195Z,13.57
2022-10-01T18:21:34.625Z,11.68
2022-10-01T18:24:04.690Z,18.57
2022-10-01T18:26:32.358Z,10.48
2022-10-01T18:29:00.135Z,12.95
2022-10-01T18:31:32.742Z,12.27
2022-10-01T18:34:02.042Z,11.30
2022-10-01T18:36:31.793Z,16.33
2022-10-01T18:39:27.677Z,13.02
2022-10-01T18:41:55.141Z,10.50
2022-10-01T18:44:24.338Z,13.55
2022-10-01T18:46:51.504Z,16.60
2022-10-01T18:49:43.493Z,13.20
2022-10-01T18:52:18.862Z,12.00
2022-10-01T18:55:40.424Z,18.20
2022-10-01T18:58:37.631Z,12.77
2022-10-01T19:01:20.204Z,12.27
2022-10-01T19:04:01.918Z,13.50
2022-10-01T19:06:51.760Z,11.60
2022-10-01T19:09:40.219Z,12.00
2022-10-01T19:12:28.656Z,10.73
2022-10-01T19:15:12.667Z,16.88
2022-10-01T19:17:39.910Z,11.03
2022-10-01T19:20:39.315Z,16.35
2022-10-01T19:23:30.079Z,13.73
2022-10-01T19:26:22.919Z,12.60
2022-10-01T19:28:58.304Z,14.02
2022-10-01T19:31:40.343Z,18.40
2022-10-01T19:34:21.804Z,10.68
2022-10-01T19:37:03.627Z,13.35
2022-10-01T19:39:36.091Z,10.30
2022-10-01T19:42:08.273Z,13.10
2022-10-01T19:45:01.466Z,9.77
2022-10-01T19:47:34.379Z,13.82
2022-10-01T19:50:07.050Z,12.13
2022-10-01T19:52:38.273Z,11.18
2022-10-01T19:55:14.256Z,10.35
2022-10-01T19:57:45.081Z,13.10
2022-10-01T20:00:19.184Z,13.75
2022-10-01T20:02:57.853Z,13.00
2022-10-01T20:05:44.158Z,19.98
2022-10-01T20:08:36.227Z,9.35
2022-10-01T20:11:36.408Z,9.47
2022-10-01T20:14:03.631Z,11.52
2022-10-01T20:16:40.805Z,12.55
2022-10-01T20:19:24.309Z,12.10
2022-10-01T20:22:08.117Z,15.75
2022-10-01T20:25:02.557Z,12.10
2022-10-01T20:27:30.254Z,11.27
2022-10-01T20:30:11.470Z,16.25
2022-10-01T20:32:51.848Z,13.50
2022-10-01T20:35:41.207Z,15.85
2022-10-01T20:38:37.961Z,12.53
2022-10-01T20:41:20.192Z,8.82
2022-10-01T20:43:50.088Z,13.23
2022-10-01T20:46:26.553Z,10.00
2022-10-01T20:49:01.411Z,15.85
2022-10-01T20:51:37.293Z,19.50
2022-10-01T20:54:13.446Z,9.93
2022-10-01T20:56:45.264Z,14.90
2022-10-01T20:59:19.283Z,12.05
2022-10-01T21:02:02.415Z,11.00
2022-10-01T21:04:34.287Z,15.50
2022-10-01T21:07:35.381Z,10.60
2022-10-01T21:10:06.352Z,16.60
2022-10-01T21:12:42.000Z,14.10
2022-10-01T21:15:13.932Z,15.30
2022-10-01T21:18:00.838Z,18.80
2022-10-01T21:20:59.367Z,14.27
2022-10-01T21:23:36.716Z,17.55
2022-10-01T21:26:35.609Z,15.30
2022-10-01T21:29:08.569Z,25.02
2022-10-01T21:32:02.937Z,22.27
2022-10-01T21:34:41.057Z,20.63
2022-10-01T21:37:16.457Z,20.13
2022-10-01T21:40:12.599Z,24.70
2022-10-01T21:43:08.793Z,20.55
2022-10-01T21:45:56.918Z,17.20
2022-10-01T21:48:49.525Z,16.98
2022-10-01T21:51:20.874Z,21.42
2022-10-01T21:54:34.857Z,15.65
2022-10-01T21:57:07.264Z,22.55
2022-10-01T21:59:51.729Z,21.60
2022-10-01T22:02:39.525Z,19.90
2022-10-01T22:05:08.592Z,20.33
2022-10-01T22:07:57.361Z,18.33
2022-10-01T22:10:33.713Z,21.65
2022-10-01T22:13:05.528Z,21.70
2022-10-01T22:15:43.750Z,23.02
2022-10-01T22:18:40.327Z,21.85
2022-10-01T22:21:13.414Z,15.23
2022-10-01T22:23:46.730Z,28.75
2022-10-01T22:26:19.935Z,15.83
2022-10-01T22:28:52.043Z,27.15
2022-10-01T22:31:25.014Z,17.38
2022-10-01T22:34:18.108Z,22.20
2022-10-01T22:36:54.239Z,22.58
2022-10-01T22:39:26.538Z,23.23
2022-10-01T22:41:58.959Z,30.58
2022-10-01T22:44:28.714Z,20.90
2022-10-01T22:47:10.868Z,16.05
2022-10-01T22:50:05.331Z,25.85
2022-10-01T22:53:07.821Z,16.33
2022-10-01T22:55:54.350Z,20.48
2022-10-01T22:58:28.972Z,21.20
2022-10-01T23:01:33.370Z,22.90
2022-10-01T23:04:28.014Z,24.92
2022-10-01T23:07:30.112Z,22.00
2022-10-01T23:10:13.593Z,19.30
2022-10-01T23:13:31.355Z,19.48
2022-10-01T23:16:32.613Z,20.67
2022-10-01T23:19:05.341Z,19.02
2022-10-01T23:21:32.659Z,19.43
2022-10-01T23:24:26.783Z,12.38
2022-10-01T23:27:40.074Z,11.43
2022-10-01T23:30:14.221Z,10.82
2022-10-01T23:32:52.879Z,9.43
2022-10-01T23:35:22.803Z,13.97
2022-10-01T23:38:09.360Z,11.50
2022-10-01T23:40:48.262Z,12.52
2022-10-01T23:43:33.144Z,10.02
2022-10-01T23:46:14.368Z,6.25
2022-10-01T23:48:58.286Z,14.93
2022-10-01T23:51:45.933Z,7.43
2022-10-01T23:55:20.938Z,11.88
2022-10-01T23:57:53.592Z,8.38
